Portada
METAR-TAF:

METAR-TAF

Aeroports :

Farnborough, Anglaterra

latitud: 51-17N, longitud: 000-46W, altitud: 65 m

Observació

L'informe es va fer fa 16 minuts, a les 22:50 UTC
Vent 3 kt amb direcció variable
Temperatura 14°C
Humitat 67%
Pressió 1027 hPa
Visibilitat 10 km o més

METAR: EGLF 122250Z AUTO VRB03KT 9999 NCD 14/08 Q1027

Hora: 00:06 (23:06 UTC)

Pronòstic

L'informe es va fer fa 9 hores i 4 minuts, a les 14:02 UTC
Pronòstic vàlid del 12 a les 15 UTC al 12 a les 19 UTC
Vent 3 kt amb direcció variable
Visibilitat 10 km o més
sense núvols per sota de 1500 mi sense presència de cumulonimbus.
Evolucionant progressivament
l' 12 a les 17 UTC al 12 a les 19 UTC
Vent 10 kt del Sud/Sud-Oest

TAF: EGLF 121402Z 1215/1219 VRB03KT CAVOK BECMG 1217/1219 20010KT

Observacions i pronòstics meteorològics de més de 4000 aeroports (METAR i TAF).

Les estacions disponibles són els punts grocs i vermells al mapa.

Posi el ratolí al punt desitjat per veure el nom de l'estació.

Feu clic per veure les observacions i els pronòstics meteorològics.

Per canviar el mapa: feu clic els botons verds amb una creu de color negre per apropar; al botó verd amb un guió per allunyar la imatge; o en les fletxes verdes per a mapes adjacents.


METAR-TAF: